createdAt,value
2023-04-03T00:00:59.352Z,99348.94
2023-04-03T00:03:28.082Z,99341.19
2023-04-03T00:05:55.926Z,99346.88
2023-04-03T00:08:23.694Z,99342.09
2023-04-03T00:10:51.690Z,99343.88
2023-04-03T00:13:19.470Z,99342.00
2023-04-03T00:15:46.987Z,99335.59
2023-04-03T00:18:15.072Z,99340.53
2023-04-03T00:20:42.768Z,99337.69
2023-04-03T00:23:10.913Z,99336.19
2023-04-03T00:25:39.239Z,99345.16
2023-04-03T00:28:07.398Z,99344.25
2023-04-03T00:30:35.793Z,99343.16
2023-04-03T00:33:04.025Z,99347.84
2023-04-03T00:35:31.918Z,99345.69
2023-04-03T00:37:59.714Z,99347.59
2023-04-03T00:40:28.433Z,99342.41
2023-04-03T00:42:58.957Z,99344.28
2023-04-03T00:45:38.916Z,99345.25
2023-04-03T00:48:08.426Z,99347.88
2023-04-03T00:50:40.023Z,99344.41
2023-04-03T00:53:10.317Z,99346.75
2023-04-03T00:55:39.017Z,99351.31
2023-04-03T00:58:07.791Z,99347.13
2023-04-03T01:00:38.855Z,99349.72
2023-04-03T01:03:07.007Z,99356.34
2023-04-03T01:05:36.190Z,99360.91
2023-04-03T01:08:04.688Z,99355.91
2023-04-03T01:10:33.049Z,99364.44
2023-04-03T01:13:01.183Z,99366.19
2023-04-03T01:15:29.609Z,99369.37
2023-04-03T01:17:59.591Z,99374.31
2023-04-03T01:20:33.604Z,99370.63
2023-04-03T01:23:10.902Z,99370.97
2023-04-03T01:25:45.816Z,99367.84
2023-04-03T01:28:23.519Z,99376.19
2023-04-03T01:30:54.173Z,99370.84
2023-04-03T01:33:22.579Z,99368.47
2023-04-03T01:35:50.298Z,99373.97
2023-04-03T01:38:18.617Z,99365.78
2023-04-03T01:40:46.649Z,99373.34
2023-04-03T01:43:14.443Z,99372.84
2023-04-03T01:45:42.240Z,99379.22
2023-04-03T01:48:10.544Z,99380.34
2023-04-03T01:50:38.692Z,99387.16
2023-04-03T01:53:06.763Z,99379.31
2023-04-03T01:55:34.788Z,99377.72
2023-04-03T01:58:02.529Z,99377.22
2023-04-03T02:00:30.217Z,99384.97
2023-04-03T02:02:58.285Z,99387.16
2023-04-03T02:05:27.010Z,99369.72
2023-04-03T02:07:54.864Z,99380.97
2023-04-03T02:10:22.895Z,99378.53
2023-04-03T02:12:50.606Z,99380.97
2023-04-03T02:15:18.732Z,99381.53
2023-04-03T02:17:46.688Z,99382.78
2023-04-03T02:20:15.790Z,99392.25
2023-04-03T02:22:43.553Z,99387.00
2023-04-03T02:25:11.627Z,99384.06
2023-04-03T02:27:39.635Z,99388.34
2023-04-03T02:30:08.066Z,99387.09
2023-04-03T02:32:36.271Z,99389.25
2023-04-03T02:35:04.603Z,99381.00
2023-04-03T02:37:32.944Z,99376.47
2023-04-03T02:40:01.272Z,99378.13
2023-04-03T02:42:29.371Z,99386.13
2023-04-03T02:44:58.735Z,99388.09
2023-04-03T02:47:28.982Z,99383.03
2023-04-03T02:49:57.599Z,99387.78
2023-04-03T02:52:25.312Z,99386.75
2023-04-03T02:54:54.281Z,99383.06
2023-04-03T02:57:21.953Z,99390.47
2023-04-03T02:59:49.634Z,99395.62
2023-04-03T03:02:17.681Z,99390.31
2023-04-03T03:04:45.280Z,99396.91
2023-04-03T03:07:12.994Z,99391.56
2023-04-03T03:09:40.849Z,99384.13
2023-04-03T03:12:09.530Z,99393.25
2023-04-03T03:14:37.474Z,99393.97
2023-04-03T03:17:05.497Z,99400.66
2023-04-03T03:19:33.229Z,99399.19
2023-04-03T03:22:00.889Z,99401.31
2023-04-03T03:24:28.877Z,99395.91
2023-04-03T03:26:56.601Z,99404.16
2023-04-03T03:29:24.301Z,99401.28
2023-04-03T03:31:53.004Z,99400.28
2023-04-03T03:34:20.790Z,99399.28
2023-04-03T03:36:48.542Z,99400.03
2023-04-03T03:39:16.599Z,99401.94
2023-04-03T03:41:44.241Z,99402.53
2023-04-03T03:44:12.923Z,99405.00
2023-04-03T03:46:41.990Z,99398.03
2023-04-03T03:49:10.098Z,99402.84
2023-04-03T03:51:41.572Z,99401.53
2023-04-03T03:54:10.760Z,99399.69
2023-04-03T03:56:38.900Z,99398.94
2023-04-03T03:59:06.916Z,99399.44
2023-04-03T04:01:36.159Z,99403.44
2023-04-03T04:04:04.777Z,99411.94
2023-04-03T04:06:32.518Z,99408.94
2023-04-03T04:09:00.982Z,99405.44
2023-04-03T04:11:29.442Z,99404.41
2023-04-03T04:13:57.344Z,99411.09
2023-04-03T04:16:25.904Z,99409.00
2023-04-03T04:18:54.357Z,99401.31
2023-04-03T04:21:22.385Z,99404.75
2023-04-03T04:23:51.625Z,99406.94
2023-04-03T04:26:20.254Z,99405.84
2023-04-03T04:28:47.969Z,99401.34
2023-04-03T04:31:15.964Z,99407.19
2023-04-03T04:33:44.184Z,99405.38
2023-04-03T04:36:19.793Z,99405.91
2023-04-03T04:38:48.061Z,99406.34
2023-04-03T04:41:16.121Z,99413.06
2023-04-03T04:43:44.537Z,99417.62
2023-04-03T04:46:12.510Z,99416.81
2023-04-03T04:48:40.567Z,99419.22
2023-04-03T04:51:08.757Z,99422.69
2023-04-03T04:53:37.829Z,99419.72
2023-04-03T04:56:05.902Z,99425.34
2023-04-03T04:58:34.145Z,99416.84
2023-04-03T05:01:04.644Z,99434.72
2023-04-03T05:03:34.337Z,99430.69
2023-04-03T05:06:02.512Z,99432.56
2023-04-03T05:08:31.768Z,99436.84
2023-04-03T05:10:59.769Z,99434.69
2023-04-03T05:13:28.246Z,99436.28
2023-04-03T05:15:57.261Z,99435.50
2023-04-03T05:18:25.426Z,99431.50
2023-04-03T05:20:53.722Z,99436.28
2023-04-03T05:23:22.055Z,99435.47
2023-04-03T05:25:50.265Z,99429.63
2023-04-03T05:28:18.514Z,99437.87
2023-04-03T05:30:46.600Z,99432.28
2023-04-03T05:33:14.718Z,99438.16
2023-04-03T05:35:46.490Z,99443.75
2023-04-03T05:38:15.662Z,99439.75
2023-04-03T05:40:44.605Z,99444.03
2023-04-03T05:43:12.442Z,99448.28
2023-04-03T05:45:40.419Z,99448.00
2023-04-03T05:48:08.615Z,99447.72
2023-04-03T05:50:36.728Z,99448.53
2023-04-03T05:53:05.020Z,99447.19
2023-04-03T05:55:33.238Z,99452.53
2023-04-03T05:58:01.025Z,99450.66
2023-04-03T06:00:29.214Z,99449.59
2023-04-03T06:02:57.870Z,99449.31
2023-04-03T06:05:25.968Z,99454.41
2023-04-03T06:07:53.778Z,99454.69
2023-04-03T06:10:21.986Z,99463.72
2023-04-03T06:12:49.923Z,99466.44
2023-04-03T06:15:17.787Z,99465.84
2023-04-03T06:17:45.765Z,99465.28
2023-04-03T06:20:13.643Z,99467.69
2023-04-03T06:22:41.358Z,99470.09
2023-04-03T06:25:09.629Z,99470.16
2023-04-03T06:27:37.955Z,99473.84
2023-04-03T06:30:07.066Z,99470.84
2023-04-03T06:32:35.173Z,99471.38
2023-04-03T06:35:02.768Z,99475.34
2023-04-03T06:37:30.482Z,99473.22
2023-04-03T06:40:01.486Z,99469.16
2023-04-03T06:42:29.715Z,99472.34
2023-04-03T06:44:58.958Z,99472.25
2023-04-03T06:47:27.035Z,99480.56
2023-04-03T06:49:55.462Z,99485.50
2023-04-03T06:52:23.646Z,99470.91
2023-04-03T06:54:51.232Z,99479.75
2023-04-03T06:57:18.912Z,99482.94
2023-04-03T06:59:46.931Z,99486.41
2023-04-03T07:02:14.803Z,99486.34
2023-04-03T07:04:42.759Z,99493.72
2023-04-03T07:07:10.828Z,99493.50
2023-04-03T07:09:38.763Z,99494.72
2023-04-03T07:12:06.591Z,99492.59
2023-04-03T07:14:34.606Z,99503.91
2023-04-03T07:17:02.321Z,99502.53
2023-04-03T07:19:30.157Z,99496.81
2023-04-03T07:21:58.171Z,99505.78
2023-04-03T07:24:25.781Z,99513.81
2023-04-03T07:26:53.925Z,99510.84
2023-04-03T07:29:22.058Z,99517.31
2023-04-03T07:31:49.744Z,99517.41
2023-04-03T07:34:17.546Z,99515.84
2023-04-03T07:36:45.541Z,99521.34
2023-04-03T07:39:13.739Z,99522.56
2023-04-03T07:41:41.436Z,99531.81
2023-04-03T07:44:09.459Z,99527.13
2023-04-03T07:46:37.936Z,99526.09
2023-04-03T07:49:05.855Z,99526.38
2023-04-03T07:51:33.839Z,99524.22
2023-04-03T07:54:01.926Z,99527.50
2023-04-03T07:56:29.539Z,99520.97
2023-04-03T07:58:58.249Z,99531.72
2023-04-03T08:01:26.282Z,99531.22
2023-04-03T08:03:54.586Z,99531.09
2023-04-03T08:06:33.032Z,99525.25
2023-04-03T08:09:05.828Z,99530.94
2023-04-03T08:11:33.781Z,99535.03
2023-04-03T08:14:01.559Z,99539.00
2023-04-03T08:16:29.536Z,99540.50
2023-04-03T08:18:57.310Z,99542.81
2023-04-03T08:21:25.494Z,99542.06
2023-04-03T08:23:53.785Z,99548.00
2023-04-03T08:26:22.428Z,99546.28
2023-04-03T08:28:50.403Z,99551.41
2023-04-03T08:31:19.844Z,99551.63
2023-04-03T08:33:48.185Z,99549.25
2023-04-03T08:36:27.142Z,99547.53
2023-04-03T08:38:58.067Z,99562.12
2023-04-03T08:41:43.600Z,99560.16
2023-04-03T08:44:41.591Z,99567.97
2023-04-03T08:47:23.866Z,99562.94
2023-04-03T08:50:04.126Z,99561.00
2023-04-03T08:52:59.163Z,99562.00
2023-04-03T08:55:48.903Z,99559.66
2023-04-03T08:58:20.144Z,99564.13
2023-04-03T09:00:51.715Z,99560.41
2023-04-03T09:03:21.553Z,99561.97
2023-04-03T09:06:09.320Z,99555.72
2023-04-03T09:08:41.139Z,99561.44
2023-04-03T09:11:08.919Z,99566.37
2023-04-03T09:13:58.212Z,99561.63
2023-04-03T09:16:29.644Z,99568.47
2023-04-03T09:19:13.800Z,99559.34
2023-04-03T09:21:41.774Z,99562.03
2023-04-03T09:24:11.780Z,99561.94
2023-04-03T09:27:00.008Z,99565.41
2023-04-03T09:29:28.318Z,99574.19
2023-04-03T09:32:36.196Z,99575.22
2023-04-03T09:35:19.020Z,99574.94
2023-04-03T09:37:51.947Z,99565.87
2023-04-03T09:40:26.144Z,99572.84
2023-04-03T09:43:01.337Z,99571.97
2023-04-03T09:45:35.178Z,99571.06
2023-04-03T09:48:16.939Z,99562.56
2023-04-03T09:50:51.470Z,99563.88
2023-04-03T09:53:40.124Z,99566.75
2023-04-03T09:56:17.225Z,99557.72
2023-04-03T09:58:50.782Z,99560.28
2023-04-03T10:01:30.085Z,99571.03
2023-04-03T10:04:07.311Z,99568.66
2023-04-03T10:06:41.560Z,99568.53
2023-04-03T10:09:21.652Z,99568.94
2023-04-03T10:12:03.270Z,99575.25
2023-04-03T10:14:32.700Z,99574.03
2023-04-03T10:17:09.359Z,99579.09
2023-04-03T10:19:44.806Z,99583.66
2023-04-03T10:22:12.296Z,99579.38
2023-04-03T10:24:52.306Z,99587.66
2023-04-03T10:27:43.641Z,99582.94
2023-04-03T10:30:22.343Z,99575.59
2023-04-03T10:33:09.969Z,99585.78
2023-04-03T10:36:22.861Z,99579.72
2023-04-03T10:39:08.744Z,99578.22
2023-04-03T10:42:15.313Z,99583.25
2023-04-03T10:45:17.433Z,99570.47
2023-04-03T10:48:05.491Z,99572.31
2023-04-03T10:50:59.184Z,99573.63
2023-04-03T10:53:46.182Z,99574.81
2023-04-03T10:56:22.515Z,99571.38
2023-04-03T10:58:54.248Z,99571.38
2023-04-03T11:01:25.085Z,99576.00
2023-04-03T11:03:56.174Z,99569.63
2023-04-03T11:06:26.796Z,99565.50
2023-04-03T11:09:04.664Z,99564.69
2023-04-03T11:11:35.008Z,99563.53
2023-04-03T11:14:14.320Z,99560.41
2023-04-03T11:16:53.357Z,99563.31
2023-04-03T11:19:30.163Z,99565.28
2023-04-03T11:22:10.500Z,99554.81
2023-04-03T11:24:40.574Z,99551.37
2023-04-03T11:27:15.502Z,99548.44
2023-04-03T11:29:47.066Z,99545.78
2023-04-03T11:32:50.225Z,99542.31
2023-04-03T11:35:19.314Z,99539.31
2023-04-03T11:37:51.806Z,99537.63
2023-04-03T11:40:27.643Z,99532.84
2023-04-03T11:43:01.309Z,99540.69
2023-04-03T11:45:35.190Z,99539.88
2023-04-03T11:48:24.583Z,99539.50
2023-04-03T11:50:53.092Z,99535.06
2023-04-03T11:53:30.088Z,99528.50
2023-04-03T11:56:02.848Z,99535.41
2023-04-03T11:58:34.186Z,99530.25
2023-04-03T12:01:12.253Z,99527.06
2023-04-03T12:03:40.256Z,99525.28
2023-04-03T12:06:08.126Z,99513.81
2023-04-03T12:08:41.687Z,99507.75
2023-04-03T12:11:09.541Z,99506.22
2023-04-03T12:13:58.817Z,99513.69
2023-04-03T12:16:32.610Z,99508.34
2023-04-03T12:19:15.625Z,99506.37
2023-04-03T12:21:46.415Z,99495.97
2023-04-03T12:24:17.083Z,99502.00
2023-04-03T12:27:06.902Z,99491.63
2023-04-03T12:29:35.581Z,99500.25
2023-04-03T12:32:40.693Z,99500.72
2023-04-03T12:36:01.279Z,99507.09
2023-04-03T12:38:43.164Z,99498.25
2023-04-03T12:41:24.546Z,99499.91
2023-04-03T12:44:20.590Z,99491.56
2023-04-03T12:46:50.852Z,99487.09
2023-04-03T12:49:39.103Z,99493.94
2023-04-03T12:52:33.158Z,99496.91
2023-04-03T12:55:02.422Z,99489.78
2023-04-03T12:57:30.211Z,99485.66
2023-04-03T12:59:58.019Z,99486.53
2023-04-03T13:02:30.075Z,99497.13
2023-04-03T13:04:59.792Z,99479.69
2023-04-03T13:07:29.771Z,99482.69
2023-04-03T13:10:03.859Z,99481.50
2023-04-03T13:12:32.468Z,99478.13
2023-04-03T13:15:22.052Z,99475.91
2023-04-03T13:17:50.668Z,99472.06
2023-04-03T13:20:23.923Z,99475.84
2023-04-03T13:22:56.469Z,99470.56
2023-04-03T13:25:25.856Z,99474.75
2023-04-03T13:28:00.404Z,99470.13
2023-04-03T13:30:39.548Z,99476.78
2023-04-03T13:33:22.214Z,99473.50
2023-04-03T13:36:03.505Z,99469.44
2023-04-03T13:38:33.421Z,99468.25
2023-04-03T13:41:07.068Z,99464.78
2023-04-03T13:43:37.220Z,99461.97
2023-04-03T13:46:04.899Z,99459.19
2023-04-03T13:48:41.804Z,99452.31
2023-04-03T13:51:12.788Z,99454.53
2023-04-03T13:53:46.936Z,99445.28
2023-04-03T13:56:34.078Z,99442.78
2023-04-03T13:59:07.172Z,99451.03
2023-04-03T14:01:55.159Z,99445.81
2023-04-03T14:04:29.029Z,99451.38
2023-04-03T14:06:57.668Z,99441.16
2023-04-03T14:09:27.996Z,99443.22
2023-04-03T14:12:02.595Z,99439.69
2023-04-03T14:14:32.971Z,99439.06
2023-04-03T14:17:03.884Z,99446.94
2023-04-03T14:19:34.619Z,99437.75
2023-04-03T14:22:12.323Z,99440.91
2023-04-03T14:24:40.688Z,99443.59
2023-04-03T14:27:34.582Z,99440.91
2023-04-03T14:30:03.524Z,99444.16
2023-04-03T14:32:31.392Z,99444.91
2023-04-03T14:34:59.241Z,99446.38
2023-04-03T14:37:29.886Z,99438.69
2023-04-03T14:39:59.277Z,99441.00
2023-04-03T14:42:31.366Z,99435.97
2023-04-03T14:45:00.451Z,99438.25
2023-04-03T14:47:32.190Z,99444.56
2023-04-03T14:50:01.227Z,99442.59
2023-04-03T14:52:33.392Z,99446.25
2023-04-03T14:55:02.765Z,99445.06
2023-04-03T14:57:31.391Z,99441.72
2023-04-03T14:59:59.557Z,99452.78
2023-04-03T15:02:38.868Z,99445.56
2023-04-03T15:05:09.740Z,99446.06
2023-04-03T15:07:40.891Z,99447.94
2023-04-03T15:10:19.849Z,99445.88
2023-04-03T15:12:48.848Z,99444.72
2023-04-03T15:15:18.422Z,99445.78
2023-04-03T15:17:47.141Z,99441.97
2023-04-03T15:20:17.148Z,99446.25
2023-04-03T15:22:45.205Z,99443.19
2023-04-03T15:25:13.268Z,99455.06
2023-04-03T15:27:40.957Z,99445.50
2023-04-03T15:30:14.395Z,99455.62
2023-04-03T15:32:42.244Z,99442.88
2023-04-03T15:35:10.423Z,99443.91
2023-04-03T15:37:39.739Z,99442.13
2023-04-03T15:40:11.084Z,99449.78
2023-04-03T15:42:39.582Z,99435.84
2023-04-03T15:45:08.456Z,99446.50
2023-04-03T15:47:36.315Z,99448.47
2023-04-03T15:50:05.046Z,99444.81
2023-04-03T15:52:32.849Z,99448.78
2023-04-03T15:55:00.539Z,99457.47
2023-04-03T16:00:04.716Z,99463.66
2023-04-03T16:02:35.111Z,99470.44
2023-04-03T16:05:03.685Z,99462.22
2023-04-03T16:07:31.433Z,99467.47
2023-04-03T16:09:59.555Z,99465.59
2023-04-03T16:12:27.833Z,99460.81
2023-04-03T16:14:55.591Z,99464.00
2023-04-03T16:17:23.513Z,99464.44
2023-04-03T16:19:51.607Z,99473.13
2023-04-03T16:22:19.348Z,99468.03
2023-04-03T16:24:47.050Z,99468.94
2023-04-03T16:27:14.987Z,99470.38
2023-04-03T16:29:42.951Z,99467.25
2023-04-03T16:32:10.918Z,99482.13
2023-04-03T16:34:39.418Z,99486.59
2023-04-03T16:37:07.716Z,99487.31
2023-04-03T16:39:36.569Z,99488.84
2023-04-03T16:42:04.758Z,99481.09
2023-04-03T16:44:32.447Z,99482.81
2023-04-03T16:47:00.467Z,99487.75
2023-04-03T16:49:28.553Z,99497.31
2023-04-03T16:51:56.306Z,99501.25
2023-04-03T16:54:24.228Z,99499.88
2023-04-03T16:56:52.434Z,99514.22
2023-04-03T16:59:20.856Z,99508.47
2023-04-03T17:01:48.534Z,99510.97
2023-04-03T17:04:16.683Z,99506.97
2023-04-03T17:06:44.401Z,99515.97
2023-04-03T17:09:12.337Z,99520.81
2023-04-03T17:14:10.131Z,99527.91
2023-04-03T17:16:38.494Z,99531.66
2023-04-03T17:19:06.706Z,99543.94
2023-04-03T17:21:34.449Z,99552.63
2023-04-03T17:24:04.678Z,99552.16
2023-04-03T17:26:32.609Z,99556.81
2023-04-03T17:29:03.182Z,99564.81
2023-04-03T17:31:30.835Z,99575.66
2023-04-03T17:33:58.942Z,99586.69
2023-04-03T17:36:26.790Z,99582.63
2023-04-03T17:38:54.763Z,99587.59
2023-04-03T17:41:23.612Z,99591.59
2023-04-03T17:43:52.364Z,99599.44
2023-04-03T17:46:20.238Z,99606.69
2023-04-03T17:48:49.258Z,99609.12
2023-04-03T17:51:23.077Z,99621.13
2023-04-03T17:53:51.397Z,99634.44
2023-04-03T17:56:24.982Z,99645.19
2023-04-03T17:58:56.745Z,99661.22
2023-04-03T18:01:28.270Z,99672.13
2023-04-03T18:03:59.098Z,99679.41
2023-04-03T18:06:28.813Z,99670.34
2023-04-03T18:09:01.310Z,99674.06
2023-04-03T18:11:30.816Z,99677.03
2023-04-03T18:14:02.377Z,99684.53
2023-04-03T18:16:30.817Z,99683.19
2023-04-03T18:19:20.660Z,99693.88
2023-04-03T18:21:47.193Z,99696.00
2023-04-03T18:24:17.342Z,99710.94
2023-04-03T18:26:47.535Z,99722.69
2023-04-03T18:29:16.020Z,99724.78
2023-04-03T18:31:47.210Z,99721.63
2023-04-03T18:34:15.559Z,99720.25
2023-04-03T18:36:43.805Z,99729.84
2023-04-03T18:42:41.935Z,99730.94
2023-04-03T18:45:11.316Z,99719.50
2023-04-03T18:47:39.991Z,99734.66
2023-04-03T18:50:09.542Z,99721.81
2023-04-03T18:52:37.950Z,99728.75
2023-04-03T18:55:06.858Z,99736.19
2023-04-03T18:57:52.089Z,99736.41
2023-04-03T19:00:25.281Z,99735.16
2023-04-03T19:02:53.946Z,99733.13
2023-04-03T19:05:22.438Z,99729.53
2023-04-03T19:07:50.636Z,99728.63
2023-04-03T19:10:18.549Z,99727.75
2023-04-03T19:12:48.095Z,99741.66
2023-04-03T19:15:18.506Z,99731.47
2023-04-03T19:17:46.746Z,99728.03
2023-04-03T19:20:15.486Z,99730.22
2023-04-03T19:22:44.475Z,99730.94
2023-04-03T19:25:13.282Z,99732.56
2023-04-03T19:27:41.230Z,99728.38
2023-04-03T19:30:11.774Z,99734.31
2023-04-03T19:32:40.250Z,99728.97
2023-04-03T19:35:10.942Z,99730.97
2023-04-03T19:37:39.504Z,99732.59
2023-04-03T19:40:08.382Z,99729.47
2023-04-03T19:42:36.032Z,99726.78
2023-04-03T19:45:08.915Z,99720.78
2023-04-03T19:47:37.047Z,99721.09
2023-04-03T19:50:06.307Z,99713.97
2023-04-03T19:52:35.597Z,99714.00
2023-04-03T19:55:04.135Z,99706.41
2023-04-03T19:57:38.413Z,99705.63
2023-04-03T20:00:07.351Z,99704.41
2023-04-03T20:02:39.795Z,99696.72
2023-04-03T20:05:08.559Z,99689.63
2023-04-03T20:07:36.354Z,99696.22
2023-04-03T20:10:04.903Z,99686.13
2023-04-03T20:12:33.164Z,99689.53
2023-04-03T20:15:01.031Z,99688.22
2023-04-03T20:17:29.178Z,99694.03
2023-04-03T20:19:57.421Z,99692.19
2023-04-03T20:22:25.507Z,99701.81
2023-04-03T20:24:53.146Z,99701.75
2023-04-03T20:27:21.142Z,99701.03
2023-04-03T20:29:49.029Z,99702.59
2023-04-03T20:32:16.780Z,99707.59
2023-04-03T20:34:48.209Z,99699.44
2023-04-03T20:37:21.772Z,99710.97
2023-04-03T20:39:49.802Z,99706.59
2023-04-03T20:42:17.647Z,99707.44
2023-04-03T20:44:45.720Z,99703.13
2023-04-03T20:47:13.800Z,99706.78
2023-04-03T20:49:41.732Z,99702.81
2023-04-03T20:52:09.593Z,99699.47
2023-04-03T20:54:37.673Z,99699.97
2023-04-03T20:57:05.492Z,99703.47
2023-04-03T20:59:33.193Z,99704.03
2023-04-03T21:02:01.311Z,99698.13
2023-04-03T21:04:38.217Z,99690.44
2023-04-03T21:07:43.309Z,99687.59
2023-04-03T21:10:48.497Z,99688.34
2023-04-03T21:13:53.864Z,99689.19
2023-04-03T21:16:21.335Z,99684.50
2023-04-03T21:19:04.127Z,99695.47
2023-04-03T21:21:33.232Z,99690.16
2023-04-03T21:24:01.396Z,99697.53
2023-04-03T21:26:29.009Z,99702.91
2023-04-03T21:28:56.914Z,99690.94
2023-04-03T21:31:25.228Z,99694.97
2023-04-03T21:33:52.838Z,99700.69
2023-04-03T21:36:20.496Z,99697.53
2023-04-03T21:38:48.380Z,99693.03
2023-04-03T21:41:16.342Z,99691.84
2023-04-03T21:43:45.606Z,99694.00
2023-04-03T21:46:13.745Z,99698.19
2023-04-03T21:48:41.295Z,99700.31
2023-04-03T21:51:08.931Z,99691.00
2023-04-03T21:53:37.024Z,99695.63
2023-04-03T21:56:04.878Z,99694.69
2023-04-03T21:58:33.316Z,99686.44
2023-04-03T22:01:21.520Z,99681.16
2023-04-03T22:03:49.661Z,99686.66
2023-04-03T22:06:17.268Z,99680.28
2023-04-03T22:08:44.869Z,99670.91
2023-04-03T22:11:14.541Z,99663.78
2023-04-03T22:13:43.098Z,99665.69
2023-04-03T22:16:11.764Z,99663.47
2023-04-03T22:18:39.900Z,99661.94
2023-04-03T22:21:07.580Z,99663.72
2023-04-03T22:23:35.550Z,99659.41
2023-04-03T22:26:12.993Z,99668.59
2023-04-03T22:28:42.760Z,99669.03
2023-04-03T22:31:11.002Z,99668.59
2023-04-03T22:33:39.541Z,99669.50
2023-04-03T22:36:10.151Z,99675.06
2023-04-03T22:38:39.063Z,99663.78
2023-04-03T22:41:07.987Z,99671.34
2023-04-03T22:43:37.009Z,99667.97
2023-04-03T22:46:06.632Z,99673.69
2023-04-03T22:48:34.706Z,99674.50
2023-04-03T22:51:05.846Z,99670.78
2023-04-03T22:53:34.120Z,99672.63
2023-04-03T22:56:02.916Z,99674.50
2023-04-03T22:58:30.740Z,99680.19
2023-04-03T23:01:10.088Z,99672.78
2023-04-03T23:03:39.007Z,99684.44
2023-04-03T23:06:08.300Z,99686.78
2023-04-03T23:08:36.747Z,99683.25
2023-04-03T23:11:04.707Z,99677.53
2023-04-03T23:13:32.841Z,99673.94
2023-04-03T23:16:01.759Z,99672.63
2023-04-03T23:18:31.316Z,99669.81
2023-04-03T23:21:00.153Z,99668.34
2023-04-03T23:23:28.131Z,99666.88
2023-04-03T23:25:57.346Z,99669.69
2023-04-03T23:28:25.885Z,99669.78
2023-04-03T23:31:01.768Z,99665.69
2023-04-03T23:33:31.307Z,99661.50
2023-04-03T23:36:00.843Z,99651.81
2023-04-03T23:38:29.136Z,99650.44
2023-04-03T23:40:57.097Z,99650.00
2023-04-03T23:43:24.764Z,99650.28
2023-04-03T23:45:52.363Z,99648.47
2023-04-03T23:48:20.542Z,99655.25
2023-04-03T23:50:48.186Z,99658.81
2023-04-03T23:53:15.781Z,99650.06
2023-04-03T23:55:43.784Z,99651.03
2023-04-03T23:58:11.400Z,99650.63
